Posadas, Argentina
Current Conditions -  °F | °C
As of 1:00 AM on Sunday 21 Dec 2014 (Local Time) from SARP Reporting Station
Thunderstorm Thunderstorm  
Wind Chill: 73°   Ceiling: Unl
Heat Index: 73°   Visibility: 6mi
Dew Point: 70°   Wind: 12mph
Humidity: 88%   Direction: 140°SE
Pressure: 29.59"   Gusts: NA
Location:  27.4°S, 55.91°W
Report Text: SARP 210400Z 14010KT 9999 -TSRA FEW015 SCT030FEW050CB 23/21 Q1002
Loading
Personal Weather Stations






























Interactive Weather Map New forecast layout! Learn more

10-Day Weather Forecast

Advertisements
Track Severe Weather on mobile